MDT,Max TemperatureF,Mean TemperatureF,Min TemperatureF,Max Dew PointF,MeanDew PointF,Min DewpointF,Max Humidity, Mean Humidity, Min Humidity, Max Sea Level PressureIn, Mean Sea Level PressureIn, Min Sea Level PressureIn, Max VisibilityMiles, Mean VisibilityMiles, Min VisibilityMiles, Max Wind SpeedMPH, Mean Wind SpeedMPH, Max Gust SpeedMPH,PrecipitationIn, CloudCover, Events, WindDirDegrees
2012-10-1,76,56,35,39,35,31,85,52,19,30.31,30.20,30.04,10,10,10,14,6,16,0.00,0,,255
2012-10-2,80,61,41,35,31,23,73,43,12,30.03,29.91,29.79,10,10,10,29,15,39,0.00,0,,219
2012-10-3,58,45,32,32,22,13,61,39,17,30.29,30.07,29.80,10,10,6,28,14,38,0.00,0,,329
2012-10-4,58,42,25,24,20,14,75,46,17,30.28,30.19,30.09,10,10,10,18,7,25,0.00,0,,2
2012-10-5,53,38,22,23,18,13,81,51,21,30.32,30.25,30.17,10,10,10,18,7,23,0.00,0,,6
2012-10-6,54,39,24,18,11,0,68,40,11,30.38,30.28,30.19,10,9,2,17,7,21,0.00,0,,9
2012-10-7,58,40,21,21,15,10,68,43,17,30.31,30.21,30.10,10,10,9,10,3,15,0.00,0,,33
2012-10-8,66,44,22,22,17,11,81,47,13,30.14,30.02,29.91,10,10,10,20,6,24,0.00,1,,224
2012-10-9,65,46,26,32,23,17,75,48,20,30.10,30.05,29.95,10,10,10,7,2,12,0.00,0,,340
2012-10-10,71,49,26,28,24,18,78,46,14,30.12,30.01,29.89,10,10,7,16,5,20,0.00,0,,301
2012-10-11,73,54,35,37,29,26,70,45,19,30.03,29.94,29.88,10,10,7,12,4,15,0.00,0,,305
2012-10-12,74,55,36,40,32,27,70,47,23,29.94,29.85,29.75,10,10,10,16,6,22,0.00,2,,264
2012-10-13,65,53,41,44,41,38,82,65,48,30.22,30.04,29.83,10,10,5,24,13,29,T,4,Rain,205
2012-10-14,66,50,34,39,37,34,85,60,34,30.35,30.23,30.09,10,10,10,20,10,24,0.00,1,,200
2012-10-15,69,56,43,40,36,33,59,45,31,30.06,29.97,29.90,10,10,10,31,13,38,0.00,2,,214
2012-10-16,63,49,35,50,39,17,83,55,26,29.98,29.75,29.61,10,10,4,38,14,53,0.07,4,Rain-Thunderstorm,221
2012-10-17,52,39,25,26,23,20,69,49,28,30.28,30.16,29.99,10,10,9,25,14,30,0.00,0,Snow,205
2012-10-18,57,41,25,27,22,15,78,49,20,30.40,30.31,30.24,10,10,9,13,4,17,0.00,0,Snow,227
2012-10-19,60,44,27,30,25,21,78,52,25,30.22,30.04,29.80,10,10,10,15,5,20,T,4,,279
2012-10-20,61,54,47,40,32,25,56,44,32,29.78,29.70,29.67,10,10,10,30,14,38,0.00,5,,214
2012-10-21,53,43,33,34,30,27,75,55,35,29.83,29.79,29.73,10,10,10,17,9,22,0.00,3,,200
2012-10-22,51,44,36,40,36,27,89,71,52,29.80,29.69,29.63,10,8,2,22,10,28,0.38,8,Rain,205
2012-10-23,46,40,34,34,30,24,85,68,51,29.98,29.86,29.73,10,8,0,30,15,38,0.02,6,Fog-Rain-Snow,216
2012-10-24,43,33,23,27,23,19,85,63,41,30.14,30.07,29.98,10,10,10,15,5,17,T,2,Fog,216
2012-10-25,36,33,29,31,29,27,100,88,75,30.47,30.21,30.08,10,5,0,16,8,18,0.28,8,Fog-Snow,215
2012-10-26,39,29,19,31,26,16,100,77,54,30.54,30.35,30.17,10,5,0,16,5,20,0.09,7,Fog-Snow,211
2012-10-27,42,34,26,32,27,24,92,79,65,30.25,30.18,30.13,10,3,0,15,5,18,T,8,Fog-Rain,349
2012-10-28,52,44,35,43,36,31,92,79,65,30.18,30.13,30.07,10,10,10,12,4,14,0.02,7,Rain,356
2012-10-29,65,51,37,40,37,35,92,65,37,30.15,30.11,30.05,10,10,8,26,10,33,T,3,Rain,224
2012-10-30,65,51,36,38,35,31,85,58,31,30.18,30.13,30.05,10,10,10,16,5,18,0.00,1,,189
2012-10-31,65,50,34,41,35,30,85,60,34,30.15,30.07,29.94,10,10,10,9,4,12,0.00,1,,349